sensor_id;sensor_type;location;lat;lon;timestamp;pressure;altitude;pressure_sealevel;temperature;humidity
17950;BME280;9100;48.700;9.316;2023-06-10T00:00:13;97370;;;21.03;73.401
17950;BME280;9100;48.700;9.316;2023-06-10T00:00:56;97372.1;;;21.01;73.658
17950;BME280;9100;48.700;9.316;2023-06-10T00:01:14;97370.5;;;21;73.789
17950;BME280;9100;48.700;9.316;2023-06-10T00:02:14;97371.5;;;20.99;74.134
17950;BME280;9100;48.700;9.316;2023-06-10T00:03:14;97371.8;;;20.98;74.23
17950;BME280;9100;48.700;9.316;2023-06-10T00:04:14;97374.90000000001;;;20.95;74.77
17950;BME280;9100;48.700;9.316;2023-06-10T00:05:13;97369.4;;;20.91;75.274
17950;BME280;9100;48.700;9.316;2023-06-10T00:05:57;97372.29999999999;;;20.9;75.371
17950;BME280;9100;48.700;9.316;2023-06-10T00:06:14;97367.9;;;20.9;75.491
17950;BME280;9100;48.700;9.316;2023-06-10T00:07:14;97366.3;;;20.89;75.87
17950;BME280;9100;48.700;9.316;2023-06-10T00:08:14;97369.9;;;20.88;76.195
17950;BME280;9100;48.700;9.316;2023-06-10T00:09:14;97364.20000000001;;;20.86;76.269
17950;BME280;9100;48.700;9.316;2023-06-10T00:10:14;97366;;;20.86;76.442
17950;BME280;9100;48.700;9.316;2023-06-10T00:10:56;97362.90000000001;;;20.84;76.559
17950;BME280;9100;48.700;9.316;2023-06-10T00:11:14;97370.4;;;20.85;76.724
17950;BME280;9100;48.700;9.316;2023-06-10T00:12:14;97372.5;;;20.83;76.829
17950;BME280;9100;48.700;9.316;2023-06-10T00:13:13;97363.09999999999;;;20.82;77.067
17950;BME280;9100;48.700;9.316;2023-06-10T00:14:14;97369.3;;;20.81;77.098
17950;BME280;9100;48.700;9.316;2023-06-10T00:15:14;97366.2;;;20.79;77.345
17950;BME280;9100;48.700;9.316;2023-06-10T00:15:56;97364.70000000001;;;20.78;77.549
17950;BME280;9100;48.700;9.316;2023-06-10T00:16:13;97366.2;;;20.79;77.573
17950;BME280;9100;48.700;9.316;2023-06-10T00:17:13;97363.9;;;20.77;77.657
17950;BME280;9100;48.700;9.316;2023-06-10T00:18:13;97366;;;20.75;77.883
17950;BME280;9100;48.700;9.316;2023-06-10T00:19:13;97368.5;;;20.75;78.078
17950;BME280;9100;48.700;9.316;2023-06-10T00:20:14;97371.90000000001;;;20.76;78.492
17950;BME280;9100;48.700;9.316;2023-06-10T00:20:56;97371.1;;;20.75;78.546
17950;BME280;9100;48.700;9.316;2023-06-10T00:21:14;97365.20000000001;;;20.75;78.535
17950;BME280;9100;48.700;9.316;2023-06-10T00:22:14;97366;;;20.75;78.557
17950;BME280;9100;48.700;9.316;2023-06-10T00:23:14;97366.5;;;20.72;78.846
17950;BME280;9100;48.700;9.316;2023-06-10T00:24:14;97364.59999999999;;;20.73;79.131
17950;BME280;9100;48.700;9.316;2023-06-10T00:25:14;97364.9;;;20.71;79.083
17950;BME280;9100;48.700;9.316;2023-06-10T00:25:57;97367.7;;;20.7;79.222
17950;BME280;9100;48.700;9.316;2023-06-10T00:26:14;97364.09999999999;;;20.71;79.279
17950;BME280;9100;48.700;9.316;2023-06-10T00:27:14;97368.5;;;20.7;79.474
17950;BME280;9100;48.700;9.316;2023-06-10T00:28:14;97372.90000000001;;;20.7;79.363
17950;BME280;9100;48.700;9.316;2023-06-10T00:29:14;97369.8;;;20.68;79.838
17950;BME280;9100;48.700;9.316;2023-06-10T00:30:13;97367.7;;;20.65;80.105
17950;BME280;9100;48.700;9.316;2023-06-10T00:30:57;97363.5;;;20.64;80.408
17950;BME280;9100;48.700;9.316;2023-06-10T00:31:13;97365.59999999999;;;20.62;80.491
17950;BME280;9100;48.700;9.316;2023-06-10T00:32:13;97369.2;;;20.61;80.87
17950;BME280;9100;48.700;9.316;2023-06-10T00:33:13;97365.3;;;20.58;81.344
17950;BME280;9100;48.700;9.316;2023-06-10T00:34:13;97359.79999999999;;;20.55;81.556
17950;BME280;9100;48.700;9.316;2023-06-10T00:35:13;97363.7;;;20.52;82.323
17950;BME280;9100;48.700;9.316;2023-06-10T00:35:56;97368.4;;;20.5;83.005
17950;BME280;9100;48.700;9.316;2023-06-10T00:36:14;97366;;;20.49;83.175
17950;BME280;9100;48.700;9.316;2023-06-10T00:37:13;97369.6;;;20.48;83.761
17950;BME280;9100;48.700;9.316;2023-06-10T00:38:14;97364.4;;;20.43;84.295
17950;BME280;9100;48.700;9.316;2023-06-10T00:39:14;97370.6;;;20.42;84.631
17950;BME280;9100;48.700;9.316;2023-06-10T00:40:14;97362.3;;;20.4;85.095
17950;BME280;9100;48.700;9.316;2023-06-10T00:40:57;97365.20000000001;;;20.38;85.527
17950;BME280;9100;48.700;9.316;2023-06-10T00:41:14;97371.90000000001;;;20.39;85.682
17950;BME280;9100;48.700;9.316;2023-06-10T00:42:14;97362.8;;;20.37;85.926
17950;BME280;9100;48.700;9.316;2023-06-10T00:43:14;97364.59999999999;;;20.36;86.144
17950;BME280;9100;48.700;9.316;2023-06-10T00:44:15;97364.59999999999;;;20.36;86.101
17950;BME280;9100;48.700;9.316;2023-06-10T00:45:14;97365.9;;;20.33;86.41
17950;BME280;9100;48.700;9.316;2023-06-10T00:45:57;97364.3;;;20.32;86.724
17950;BME280;9100;48.700;9.316;2023-06-10T00:46:14;97364.3;;;20.32;86.843
17950;BME280;9100;48.700;9.316;2023-06-10T00:47:14;97368.5;;;20.33;87.127
17950;BME280;9100;48.700;9.316;2023-06-10T00:48:14;97361.7;;;20.32;87.256
17950;BME280;9100;48.700;9.316;2023-06-10T00:49:14;97362;;;20.31;86.926
17950;BME280;9100;48.700;9.316;2023-06-10T00:50:14;97363.8;;;20.3;87.317
17950;BME280;9100;48.700;9.316;2023-06-10T00:50:57;97367.4;;;20.29;87.75
17950;BME280;9100;48.700;9.316;2023-06-10T00:51:14;97366.6;;;20.29;87.89
17950;BME280;9100;48.700;9.316;2023-06-10T00:52:14;97363.2;;;20.28;87.716
17950;BME280;9100;48.700;9.316;2023-06-10T00:53:14;97368.7;;;20.27;87.767
17950;BME280;9100;48.700;9.316;2023-06-10T00:54:14;97370.5;;;20.26;88.21
17950;BME280;9100;48.700;9.316;2023-06-10T00:55:15;97370.2;;;20.23;88.433
17950;BME280;9100;48.700;9.316;2023-06-10T00:55:57;97369.4;;;20.22;87.898
17950;BME280;9100;48.700;9.316;2023-06-10T00:56:14;97365.20000000001;;;20.21;88.17
17950;BME280;9100;48.700;9.316;2023-06-10T00:57:14;97372.5;;;20.19;88.416
17950;BME280;9100;48.700;9.316;2023-06-10T00:58:14;97364.20000000001;;;20.17;87.692
17950;BME280;9100;48.700;9.316;2023-06-10T00:59:14;97368;;;20.15;87.852
17950;BME280;9100;48.700;9.316;2023-06-10T01:00:14;97365.7;;;20.13;88.685
17950;BME280;9100;48.700;9.316;2023-06-10T01:00:56;97362.3;;;20.13;89.033
17950;BME280;9100;48.700;9.316;2023-06-10T01:01:14;97372.40000000001;;;20.14;89.133
17950;BME280;9100;48.700;9.316;2023-06-10T01:02:14;97372.40000000001;;;20.14;88.622
17950;BME280;9100;48.700;9.316;2023-06-10T01:03:14;97361.5;;;20.12;88.237
17950;BME280;9100;48.700;9.316;2023-06-10T01:04:14;97364.9;;;20.13;88.098
17950;BME280;9100;48.700;9.316;2023-06-10T01:05:14;97364.4;;;20.11;87.703
17950;BME280;9100;48.700;9.316;2023-06-10T01:05:57;97360.2;;;20.1;87.699
17950;BME280;9100;48.700;9.316;2023-06-10T01:06:16;97365.4;;;20.1;87.818
17950;BME280;9100;48.700;9.316;2023-06-10T01:07:14;97361.8;;;20.11;87.735
17950;BME280;9100;48.700;9.316;2023-06-10T01:08:15;97363.59999999999;;;20.1;88.027
17950;BME280;9100;48.700;9.316;2023-06-10T01:09:18;97356.8;;;20.09;88.373
17950;BME280;9100;48.700;9.316;2023-06-10T01:10:16;97363;;;20.08;88.187
17950;BME280;9100;48.700;9.316;2023-06-10T01:10:57;97359.90000000001;;;20.06;88.552
17950;BME280;9100;48.700;9.316;2023-06-10T01:11:17;97365.9;;;20.07;88.814
17950;BME280;9100;48.700;9.316;2023-06-10T01:12:15;97364.09999999999;;;20.07;90.01
17950;BME280;9100;48.700;9.316;2023-06-10T01:13:14;97362.5;;;20.06;90.127
17950;BME280;9100;48.700;9.316;2023-06-10T01:14:14;97362.5;;;20.06;90.052
17950;BME280;9100;48.700;9.316;2023-06-10T01:15:14;97355;;;20.05;90.634
17950;BME280;9100;48.700;9.316;2023-06-10T01:15:57;97362;;;20.04;90.775
17950;BME280;9100;48.700;9.316;2023-06-10T01:16:14;97359.6;;;20.03;90.728
17950;BME280;9100;48.700;9.316;2023-06-10T01:17:14;97365.59999999999;;;20.03;90.848
17950;BME280;9100;48.700;9.316;2023-06-10T01:18:14;97357.8;;;20.03;91.163
17950;BME280;9100;48.700;9.316;2023-06-10T01:19:14;97356.3;;;20.02;91.238
17950;BME280;9100;48.700;9.316;2023-06-10T01:20:14;97350.5;;;20;91.734
17950;BME280;9100;48.700;9.316;2023-06-10T01:20:56;97317.6;;;19.74;91.961
17950;BME280;9100;48.700;9.316;2023-06-10T01:21:18;97353.59999999999;;;19.97;92.172
17950;BME280;9100;48.700;9.316;2023-06-10T01:22:14;97351.2;;;19.96;92.604
17950;BME280;9100;48.700;9.316;2023-06-10T01:23:14;97348.1;;;19.94;93.013
17950;BME280;9100;48.700;9.316;2023-06-10T01:24:14;97334.79999999999;;;19.85;93.43
17950;BME280;9100;48.700;9.316;2023-06-10T01:25:14;97354.6;;;19.91;93.963
17950;BME280;9100;48.700;9.316;2023-06-10T01:25:57;97351.4;;;19.89;94.035
17950;BME280;9100;48.700;9.316;2023-06-10T01:26:14;97353.2;;;19.89;94.033
17950;BME280;9100;48.700;9.316;2023-06-10T01:27:14;97353.5;;;19.87;93.835
17950;BME280;9100;48.700;9.316;2023-06-10T01:28:16;97353.7;;;19.85;93.616
17950;BME280;9100;48.700;9.316;2023-06-10T01:29:14;97349.59999999999;;;19.84;93.514
17950;BME280;9100;48.700;9.316;2023-06-10T01:30:15;97352.4;;;19.83;93.653
17950;BME280;9100;48.700;9.316;2023-06-10T01:30:59;97356;;;19.82;93.898
17950;BME280;9100;48.700;9.316;2023-06-10T01:31:16;97351.59999999999;;;19.82;93.988
17950;BME280;9100;48.700;9.316;2023-06-10T01:32:15;97350.9;;;19.82;94.008
17950;BME280;9100;48.700;9.316;2023-06-10T01:33:14;97357.6;;;19.83;93.925
17950;BME280;9100;48.700;9.316;2023-06-10T01:34:14;97351.59999999999;;;19.82;93.977
17950;BME280;9100;48.700;9.316;2023-06-10T01:35:14;97351.9;;;19.81;93.823
17950;BME280;9100;48.700;9.316;2023-06-10T01:35:57;97354.7;;;19.79;93.775
17950;BME280;9100;48.700;9.316;2023-06-10T01:36:15;97355.7;;;19.78;93.937
17950;BME280;9100;48.700;9.316;2023-06-10T01:37:15;97353.4;;;19.77;94.488
17950;BME280;9100;48.700;9.316;2023-06-10T01:38:14;97353.9;;;19.74;94.078
17950;BME280;9100;48.700;9.316;2023-06-10T01:39:14;97356.5;;;19.74;94.1
17950;BME280;9100;48.700;9.316;2023-06-10T01:40:14;97355.2;;;19.71;94.877
17950;BME280;9100;48.700;9.316;2023-06-10T01:40:56;97362.2;;;19.71;94.517
17950;BME280;9100;48.700;9.316;2023-06-10T01:41:16;97364;;;19.7;94.474
17950;BME280;9100;48.700;9.316;2023-06-10T01:42:14;97358.5;;;19.72;94.519
17950;BME280;9100;48.700;9.316;2023-06-10T01:43:14;97360.40000000001;;;19.76;94.355
17950;BME280;9100;48.700;9.316;2023-06-10T01:44:17;97362.8;;;19.83;93.838
17950;BME280;9100;48.700;9.316;2023-06-10T01:45:14;97352.20000000001;;;19.9;93.179
17950;BME280;9100;48.700;9.316;2023-06-10T01:45:56;97358.2;;;19.95;92.842
17950;BME280;9100;48.700;9.316;2023-06-10T01:46:14;97365.8;;;19.97;93.009
17950;BME280;9100;48.700;9.316;2023-06-10T01:47:14;97362.5;;;20.01;92.734
17950;BME280;9100;48.700;9.316;2023-06-10T01:48:14;97360.90000000001;;;20;92.43
17950;BME280;9100;48.700;9.316;2023-06-10T01:49:14;97357.8;;;19.98;92.371
17950;BME280;9100;48.700;9.316;2023-06-10T01:50:14;97353.59999999999;;;19.97;92.596
17950;BME280;9100;48.700;9.316;2023-06-10T01:50:57;97360.79999999999;;;19.95;92.537
17950;BME280;9100;48.700;9.316;2023-06-10T01:51:14;97359;;;19.96;92.528
17950;BME280;9100;48.700;9.316;2023-06-10T01:52:14;97361.6;;;19.96;92.3
17950;BME280;9100;48.700;9.316;2023-06-10T01:53:14;97364.5;;;19.94;92.611
17950;BME280;9100;48.700;9.316;2023-06-10T01:54:14;97355.9;;;19.94;92.926
17950;BME280;9100;48.700;9.316;2023-06-10T01:55:14;97360.5;;;19.92;92.705
17950;BME280;9100;48.700;9.316;2023-06-10T01:55:56;97364.20000000001;;;19.91;92.875
17950;BME280;9100;48.700;9.316;2023-06-10T01:56:14;97368.6;;;19.9;92.973
17950;BME280;9100;48.700;9.316;2023-06-10T01:57:14;97366.2;;;19.89;93.512
17950;BME280;9100;48.700;9.316;2023-06-10T01:58:14;97362.3;;;19.86;94.148
17950;BME280;9100;48.700;9.316;2023-06-10T01:59:14;97364.4;;;19.84;94.326
17950;BME280;9100;48.700;9.316;2023-06-10T02:00:14;97363.3;;;19.8;94.481
17950;BME280;9100;48.700;9.316;2023-06-10T02:00:56;97362.2;;;19.76;94.593
17950;BME280;9100;48.700;9.316;2023-06-10T02:01:14;97361.40000000001;;;19.75;94.636
17950;BME280;9100;48.700;9.316;2023-06-10T02:02:14;97361.7;;;19.74;94.74
17950;BME280;9100;48.700;9.316;2023-06-10T02:03:14;97365.3;;;19.73;95.324
17950;BME280;9100;48.700;9.316;2023-06-10T02:04:14;97364.8;;;19.71;94.593
17950;BME280;9100;48.700;9.316;2023-06-10T02:05:14;97367.6;;;19.69;95.881
17950;BME280;9100;48.700;9.316;2023-06-10T02:05:56;97364.5;;;19.67;96.126
17950;BME280;9100;48.700;9.316;2023-06-10T02:06:14;97368.9;;;19.67;96.181
17950;BME280;9100;48.700;9.316;2023-06-10T02:07:14;97369.9;;;19.66;96.678
17950;BME280;9100;48.700;9.316;2023-06-10T02:08:14;97373.7;;;19.63;96.443
17950;BME280;9100;48.700;9.316;2023-06-10T02:09:14;97365.4;;;19.61;96.775
17950;BME280;9100;48.700;9.316;2023-06-10T02:10:14;97371.90000000001;;;19.59;96.771
17950;BME280;9100;48.700;9.316;2023-06-10T02:10:56;97370;;;19.54;96.858
17950;BME280;9100;48.700;9.316;2023-06-10T02:11:14;97363;;;19.55;96.871
17950;BME280;9100;48.700;9.316;2023-06-10T02:12:14;97372.79999999999;;;19.53;97.028
17950;BME280;9100;48.700;9.316;2023-06-10T02:13:14;97367.1;;;19.51;97.881
17950;BME280;9100;48.700;9.316;2023-06-10T02:14:14;97366.8;;;19.47;98.081
17950;BME280;9100;48.700;9.316;2023-06-10T02:15:14;97373.8;;;19.47;98.003
17950;BME280;9100;48.700;9.316;2023-06-10T02:15:57;97368.9;;;19.45;98.369
17950;BME280;9100;48.700;9.316;2023-06-10T02:16:14;97365.3;;;19.46;98.491
17950;BME280;9100;48.700;9.316;2023-06-10T02:17:14;97372.2;;;19.46;98.543
17950;BME280;9100;48.700;9.316;2023-06-10T02:18:14;97376.9;;;19.44;98.919
17950;BME280;9100;48.700;9.316;2023-06-10T02:19:14;97371.2;;;19.42;98.914
17950;BME280;9100;48.700;9.316;2023-06-10T02:20:14;97379.9;;;19.41;98.912
17950;BME280;9100;48.700;9.316;2023-06-10T02:20:57;97380.9;;;19.39;99.072
17950;BME280;9100;48.700;9.316;2023-06-10T02:21:14;97372.6;;;19.37;99.145
17950;BME280;9100;48.700;9.316;2023-06-10T02:22:14;97374.2;;;19.38;99.157
17950;BME280;9100;48.700;9.316;2023-06-10T02:23:14;97380.4;;;19.37;99.448
17950;BME280;9100;48.700;9.316;2023-06-10T02:24:14;97377.3;;;19.35;99.596
17950;BME280;9100;48.700;9.316;2023-06-10T02:25:14;97380.9;;;19.34;99.887
17950;BME280;9100;48.700;9.316;2023-06-10T02:25:56;97379.6;;;19.32;100
17950;BME280;9100;48.700;9.316;2023-06-10T02:26:14;97378;;;19.31;100
17950;BME280;9100;48.700;9.316;2023-06-10T02:27:14;97379.8;;;19.3;100
17950;BME280;9100;48.700;9.316;2023-06-10T02:28:14;97382.6;;;19.29;100
17950;BME280;9100;48.700;9.316;2023-06-10T02:29:14;97375.9;;;19.28;100
17950;BME280;9100;48.700;9.316;2023-06-10T02:30:14;97377.09999999999;;;19.25;100
17950;BME280;9100;48.700;9.316;2023-06-10T02:30:57;97375.59999999999;;;19.24;100
17950;BME280;9100;48.700;9.316;2023-06-10T02:31:14;97373;;;19.24;100
17950;BME280;9100;48.700;9.316;2023-06-10T02:32:14;97371.40000000001;;;19.23;100
17950;BME280;9100;48.700;9.316;2023-06-10T02:33:14;97376.09999999999;;;19.21;100
17950;BME280;9100;48.700;9.316;2023-06-10T02:34:14;97376.3;;;19.2;100
17950;BME280;9100;48.700;9.316;2023-06-10T02:35:14;97375.3;;;19.21;100
17950;BME280;9100;48.700;9.316;2023-06-10T02:35:56;97371.40000000001;;;19.18;100
17950;BME280;9100;48.700;9.316;2023-06-10T02:36:14;97376.5;;;19.18;100
17950;BME280;9100;48.700;9.316;2023-06-10T02:37:14;97379.1;;;19.18;100
17950;BME280;9100;48.700;9.316;2023-06-10T02:38:14;97377.59999999999;;;19.17;100
17950;BME280;9100;48.700;9.316;2023-06-10T02:39:14;97377;;;19.15;100
17950;BME280;9100;48.700;9.316;2023-06-10T02:40:14;97379.8;;;19.14;100
17950;BME280;9100;48.700;9.316;2023-06-10T02:40:57;97378.5;;;19.11;100
17950;BME280;9100;48.700;9.316;2023-06-10T02:41:14;97376.70000000001;;;19.12;100
17950;BME280;9100;48.700;9.316;2023-06-10T02:42:14;97381.9;;;19.12;100
17950;BME280;9100;48.700;9.316;2023-06-10T02:43:14;97384.7;;;19.1;100
17950;BME280;9100;48.700;9.316;2023-06-10T02:44:14;97390.7;;;19.11;100
17950;BME280;9100;48.700;9.316;2023-06-10T02:45:14;97388.4;;;19.09;100
17950;BME280;9100;48.700;9.316;2023-06-10T02:45:56;97389.59999999999;;;19.07;100
17950;BME280;9100;48.700;9.316;2023-06-10T02:46:14;97391.2;;;19.08;100
17950;BME280;9100;48.700;9.316;2023-06-10T02:47:14;97391.2;;;19.08;100
17950;BME280;9100;48.700;9.316;2023-06-10T02:48:14;97399.2;;;19.06;100
17950;BME280;9100;48.700;9.316;2023-06-10T02:49:14;97402.8;;;19.05;100
17950;BME280;9100;48.700;9.316;2023-06-10T02:50:14;97399.7;;;19.03;100
17950;BME280;9100;48.700;9.316;2023-06-10T02:50:56;97395.5;;;19.02;100
17950;BME280;9100;48.700;9.316;2023-06-10T02:51:14;97400.7;;;19.02;100
17950;BME280;9100;48.700;9.316;2023-06-10T02:52:14;97404.3;;;19.01;100
17950;BME280;9100;48.700;9.316;2023-06-10T02:53:14;97396;;;18.99;100
17950;BME280;9100;48.700;9.316;2023-06-10T02:54:14;97397.2;;;18.97;100
17950;BME280;9100;48.700;9.316;2023-06-10T02:55:14;97396.7;;;18.95;100
17950;BME280;9100;48.700;9.316;2023-06-10T02:55:56;97395.3;;;18.92;100
17950;BME280;9100;48.700;9.316;2023-06-10T02:56:15;97399.5;;;18.93;100
17950;BME280;9100;48.700;9.316;2023-06-10T02:57:14;97395.3;;;18.92;100
17950;BME280;9100;48.700;9.316;2023-06-10T02:58:14;97396.6;;;18.89;100
17950;BME280;9100;48.700;9.316;2023-06-10T02:59:14;97397.29999999999;;;18.85;100
17950;BME280;9100;48.700;9.316;2023-06-10T03:00:14;97402.20000000001;;;18.81;100
17950;BME280;9100;48.700;9.316;2023-06-10T03:00:56;97395.7;;;18.79;100
17950;BME280;9100;48.700;9.316;2023-06-10T03:01:14;97400.59999999999;;;18.8;100
17950;BME280;9100;48.700;9.316;2023-06-10T03:02:14;97398.29999999999;;;18.79;100
17950;BME280;9100;48.700;9.316;2023-06-10T03:03:14;97393.5;;;18.76;100
17950;BME280;9100;48.700;9.316;2023-06-10T03:04:14;97390.4;;;18.74;100
17950;BME280;9100;48.700;9.316;2023-06-10T03:05:14;97400.3;;;18.72;100
17950;BME280;9100;48.700;9.316;2023-06-10T03:05:56;97399.7;;;18.7;100
17950;BME280;9100;48.700;9.316;2023-06-10T03:06:14;97398.7;;;18.71;100
17950;BME280;9100;48.700;9.316;2023-06-10T03:07:14;97405.4;;;18.72;100
17950;BME280;9100;48.700;9.316;2023-06-10T03:08:14;97397.90000000001;;;18.7;100
17950;BME280;9100;48.700;9.316;2023-06-10T03:09:14;97399.7;;;18.7;100
17950;BME280;9100;48.700;9.316;2023-06-10T03:10:14;97396.6;;;18.68;100
17950;BME280;9100;48.700;9.316;2023-06-10T03:10:57;97401.70000000001;;;18.68;100
17950;BME280;9100;48.700;9.316;2023-06-10T03:11:14;97402.5;;;18.68;100
17950;BME280;9100;48.700;9.316;2023-06-10T03:12:14;97401.70000000001;;;18.68;100
17950;BME280;9100;48.700;9.316;2023-06-10T03:13:14;97403.5;;;18.67;100
17950;BME280;9100;48.700;9.316;2023-06-10T03:14:14;97405.3;;;18.67;100
17950;BME280;9100;48.700;9.316;2023-06-10T03:15:14;97399.40000000001;;;18.66;100
17950;BME280;9100;48.700;9.316;2023-06-10T03:15:57;97402.20000000001;;;18.65;100
17950;BME280;9100;48.700;9.316;2023-06-10T03:16:14;97403.8;;;18.66;100
17950;BME280;9100;48.700;9.316;2023-06-10T03:17:14;97406.9;;;18.68;100
17950;BME280;9100;48.700;9.316;2023-06-10T03:18:14;97405.3;;;18.67;100
17950;BME280;9100;48.700;9.316;2023-06-10T03:19:14;97408.90000000001;;;18.66;100
17950;BME280;9100;48.700;9.316;2023-06-10T03:20:14;97407.4;;;18.65;100
17950;BME280;9100;48.700;9.316;2023-06-10T03:20:56;97416.2;;;18.64;100
17950;BME280;9100;48.700;9.316;2023-06-10T03:21:14;97411;;;18.64;100
17950;BME280;9100;48.700;9.316;2023-06-10T03:22:14;97416.2;;;18.64;100
17950;BME280;9100;48.700;9.316;2023-06-10T03:23:14;97406.4;;;18.66;100
17950;BME280;9100;48.700;9.316;2023-06-10T03:24:14;97411.8;;;18.64;100
17950;BME280;9100;48.700;9.316;2023-06-10T03:25:14;97416.2;;;18.64;100
17950;BME280;9100;48.700;9.316;2023-06-10T03:25:57;97424.2;;;18.62;100
17950;BME280;9100;48.700;9.316;2023-06-10T03:26:14;97420.6;;;18.63;100
17950;BME280;9100;48.700;9.316;2023-06-10T03:27:14;97417.4;;;18.61;100
17950;BME280;9100;48.700;9.316;2023-06-10T03:28:14;97424.40000000001;;;18.61;100
17950;BME280;9100;48.700;9.316;2023-06-10T03:29:14;97416.7;;;18.61;100
17950;BME280;9100;48.700;9.316;2023-06-10T03:30:14;97419.5;;;18.59;100
17950;BME280;9100;48.700;9.316;2023-06-10T03:30:57;97425.7;;;18.58;100
17950;BME280;9100;48.700;9.316;2023-06-10T03:31:14;97423.90000000001;;;18.59;100
17950;BME280;9100;48.700;9.316;2023-06-10T03:32:14;97413.5;;;18.59;100
17950;BME280;9100;48.700;9.316;2023-06-10T03:33:14;97429;;;18.59;100
17950;BME280;9100;48.700;9.316;2023-06-10T03:34:14;97428.2;;;18.58;100
17950;BME280;9100;48.700;9.316;2023-06-10T03:35:14;97432.6;;;18.58;100
17950;BME280;9100;48.700;9.316;2023-06-10T03:35:57;97426.70000000001;;;18.57;100
17950;BME280;9100;48.700;9.316;2023-06-10T03:36:14;97427.5;;;18.58;100
17950;BME280;9100;48.700;9.316;2023-06-10T03:37:14;97426.70000000001;;;18.57;100
17950;BME280;9100;48.700;9.316;2023-06-10T03:38:14;97431.1;;;18.57;100
17950;BME280;9100;48.700;9.316;2023-06-10T03:39:14;97424.1;;;18.57;100
17950;BME280;9100;48.700;9.316;2023-06-10T03:40:14;97426.70000000001;;;18.57;100
17950;BME280;9100;48.700;9.316;2023-06-10T03:40:57;97431.1;;;18.57;100
17950;BME280;9100;48.700;9.316;2023-06-10T03:41:14;97431.9;;;18.57;100
17950;BME280;9100;48.700;9.316;2023-06-10T03:42:14;97429.8;;;18.59;100
17950;BME280;9100;48.700;9.316;2023-06-10T03:43:14;97430.6;;;18.6;100
17950;BME280;9100;48.700;9.316;2023-06-10T03:44:14;97433.2;;;18.6;100
17950;BME280;9100;48.700;9.316;2023-06-10T03:45:14;97435;;;18.59;100
17950;BME280;9100;48.700;9.316;2023-06-10T03:45:57;97430.8;;;18.58;100
17950;BME280;9100;48.700;9.316;2023-06-10T03:46:14;97430.6;;;18.6;100
17950;BME280;9100;48.700;9.316;2023-06-10T03:47:14;97435.79999999999;;;18.6;100
17950;BME280;9100;48.700;9.316;2023-06-10T03:48:14;97434;;;18.6;100
17950;BME280;9100;48.700;9.316;2023-06-10T03:49:14;97429.6;;;18.61;100
17950;BME280;9100;48.700;9.316;2023-06-10T03:50:14;97430.8;;;18.58;100
17950;BME280;9100;48.700;9.316;2023-06-10T03:50:56;97426.70000000001;;;18.57;100
17950;BME280;9100;48.700;9.316;2023-06-10T03:51:14;97433.4;;;18.58;100
17950;BME280;9100;48.700;9.316;2023-06-10T03:52:14;97432.6;;;18.58;100
17950;BME280;9100;48.700;9.316;2023-06-10T03:53:14;97430.3;;;18.56;100
17950;BME280;9100;48.700;9.316;2023-06-10T03:54:14;97417.7;;;18.48;100
17950;BME280;9100;48.700;9.316;2023-06-10T03:55:14;97434.1;;;18.54;100
17950;BME280;9100;48.700;9.316;2023-06-10T03:55:57;97429.2;;;18.52;100
17950;BME280;9100;48.700;9.316;2023-06-10T03:56:14;97429.2;;;18.52;100
17950;BME280;9100;48.700;9.316;2023-06-10T03:57:14;97438;;;18.51;100
17950;BME280;9100;48.700;9.316;2023-06-10T03:58:14;97434.79999999999;;;18.49;100
17950;BME280;9100;48.700;9.316;2023-06-10T03:59:14;97442.3;;;18.46;100
17950;BME280;9100;48.700;9.316;2023-06-10T04:00:14;97438.09999999999;;;18.45;100
17950;BME280;9100;48.700;9.316;2023-06-10T04:00:57;97440.7;;;18.45;100
17950;BME280;9100;48.700;9.316;2023-06-10T04:01:14;97438.09999999999;;;18.45;100
17950;BME280;9100;48.700;9.316;2023-06-10T04:02:14;97440.4;;;18.46;100
17950;BME280;9100;48.700;9.316;2023-06-10T04:03:14;97446.40000000001;;;18.47;100
17950;BME280;9100;48.700;9.316;2023-06-10T04:04:14;97437.59999999999;;;18.48;100
17950;BME280;9100;48.700;9.316;2023-06-10T04:05:15;97435;;;18.48;100
17950;BME280;9100;48.700;9.316;2023-06-10T04:05:56;97443.6;;;18.48;100
17950;BME280;9100;48.700;9.316;2023-06-10T04:06:14;97430.9;;;18.47;100
17950;BME280;9100;48.700;9.316;2023-06-10T04:07:14;97439.20000000001;;;18.49;100
17950;BME280;9100;48.700;9.316;2023-06-10T04:08:14;97441.8;;;18.49;100
17950;BME280;9100;48.700;9.316;2023-06-10T04:09:14;97445.2;;;18.49;100
17950;BME280;9100;48.700;9.316;2023-06-10T04:10:14;97442.8;;;18.48;100
17950;BME280;9100;48.700;9.316;2023-06-10T04:10:57;97440.4;;;18.46;100
17950;BME280;9100;48.700;9.316;2023-06-10T04:11:14;97443.8;;;18.47;100
17950;BME280;9100;48.700;9.316;2023-06-10T04:12:14;97443.3;;;18.45;100
17950;BME280;9100;48.700;9.316;2023-06-10T04:13:14;97440.09999999999;;;18.42;100
17950;BME280;9100;48.700;9.316;2023-06-10T04:14:14;97437.5;;;18.42;100
17950;BME280;9100;48.700;9.316;2023-06-10T04:15:14;97438.59999999999;;;18.41;100
17950;BME280;9100;48.700;9.316;2023-06-10T04:15:57;97446.3;;;18.41;100
17950;BME280;9100;48.700;9.316;2023-06-10T04:16:14;97440.09999999999;;;18.42;100
17950;BME280;9100;48.700;9.316;2023-06-10T04:17:14;97440.09999999999;;;18.42;100
17950;BME280;9100;48.700;9.316;2023-06-10T04:18:14;97439.70000000001;;;18.46;100
17950;BME280;9100;48.700;9.316;2023-06-10T04:19:14;97439.70000000001;;;18.46;100
17950;BME280;9100;48.700;9.316;2023-06-10T04:20:14;97442.3;;;18.46;100
17950;BME280;9100;48.700;9.316;2023-06-10T04:20:57;97437.09999999999;;;18.46;100
17950;BME280;9100;48.700;9.316;2023-06-10T04:21:14;97439.70000000001;;;18.46;100
17950;BME280;9100;48.700;9.316;2023-06-10T04:22:14;97438.4;;;18.48;100
17950;BME280;9100;48.700;9.316;2023-06-10T04:23:14;97438.4;;;18.48;100
17950;BME280;9100;48.700;9.316;2023-06-10T04:24:14;97446.40000000001;;;18.47;100
17950;BME280;9100;48.700;9.316;2023-06-10T04:25:14;97441.2;;;18.47;100